createdAt,value
2022-12-18T00:00:25.645Z,83.25
2022-12-18T00:02:54.573Z,81.90
2022-12-18T00:05:23.500Z,82.34
2022-12-18T00:07:52.317Z,82.13
2022-12-18T00:10:21.117Z,81.58
2022-12-18T00:12:49.932Z,82.93
2022-12-18T00:15:18.791Z,83.26
2022-12-18T00:17:48.825Z,81.69
2022-12-18T00:20:22.745Z,80.00
2022-12-18T00:22:51.534Z,82.77
2022-12-18T00:25:20.367Z,83.33
2022-12-18T00:27:49.185Z,82.67
2022-12-18T00:30:18.185Z,81.00
2022-12-18T00:32:48.376Z,81.00
2022-12-18T00:35:17.454Z,82.07
2022-12-18T00:37:46.280Z,80.27
2022-12-18T00:40:15.054Z,80.95
2022-12-18T00:42:57.949Z,80.19
2022-12-18T00:45:30.419Z,80.27
2022-12-18T00:48:00.656Z,79.90
2022-12-18T00:50:29.863Z,80.67
2022-12-18T00:52:58.665Z,81.28
2022-12-18T00:55:27.856Z,82.08
2022-12-18T00:57:56.852Z,81.33
2022-12-18T01:00:26.199Z,80.58
2022-12-18T01:02:55.069Z,79.75
2022-12-18T01:05:25.120Z,81.57
2022-12-18T01:07:54.207Z,81.41
2022-12-18T01:10:23.163Z,81.20
2022-12-18T01:12:52.045Z,79.75
2022-12-18T01:15:21.504Z,80.17
2022-12-18T01:17:50.356Z,80.01
2022-12-18T01:20:19.196Z,80.34
2022-12-18T01:22:49.524Z,80.59
2022-12-18T01:25:18.541Z,81.29
2022-12-18T01:27:47.465Z,80.94
2022-12-18T01:30:16.317Z,80.63
2022-12-18T01:32:45.169Z,80.53
2022-12-18T01:35:13.990Z,80.76
2022-12-18T01:37:42.817Z,81.07
2022-12-18T01:40:13.844Z,80.48
2022-12-18T01:42:42.726Z,80.38
2022-12-18T01:45:28.602Z,80.95
2022-12-18T01:47:59.818Z,80.65
2022-12-18T01:50:34.127Z,79.83
2022-12-18T01:53:09.079Z,79.73
2022-12-18T01:55:47.374Z,80.50
2022-12-18T01:58:16.434Z,80.63
2022-12-18T02:00:45.839Z,80.24
2022-12-18T02:03:15.436Z,81.66
2022-12-18T02:05:50.014Z,81.06
2022-12-18T02:08:23.725Z,80.90
2022-12-18T02:11:04.655Z,80.83
2022-12-18T02:13:44.281Z,80.55
2022-12-18T02:16:24.328Z,80.64
2022-12-18T02:18:59.847Z,80.62
2022-12-18T02:21:45.759Z,80.77
2022-12-18T02:24:30.057Z,80.27
2022-12-18T02:27:03.619Z,80.34
2022-12-18T02:29:38.020Z,80.98
2022-12-18T02:32:13.300Z,80.76
2022-12-18T02:34:43.419Z,80.69
2022-12-18T02:37:15.279Z,80.56
2022-12-18T02:39:46.284Z,80.28
2022-12-18T02:42:16.895Z,80.23
2022-12-18T02:44:46.587Z,80.63
2022-12-18T02:47:17.295Z,81.09
2022-12-18T02:49:57.287Z,80.56
2022-12-18T02:52:35.635Z,81.57
2022-12-18T02:55:19.887Z,82.34
2022-12-18T02:57:55.654Z,81.15
2022-12-18T03:00:29.789Z,80.89
2022-12-18T03:03:05.519Z,80.91
2022-12-18T03:05:40.219Z,81.29
2022-12-18T03:08:14.426Z,81.31
2022-12-18T03:10:52.098Z,80.58
2022-12-18T03:13:33.668Z,80.70
2022-12-18T03:16:03.911Z,81.24
2022-12-18T03:18:39.382Z,82.15
2022-12-18T03:21:10.506Z,81.06
2022-12-18T03:23:43.966Z,80.93
2022-12-18T03:26:16.514Z,80.62
2022-12-18T03:28:53.799Z,81.51
2022-12-18T03:31:25.415Z,81.13
2022-12-18T03:33:57.229Z,80.56
2022-12-18T03:36:26.409Z,82.02
2022-12-18T03:38:55.349Z,81.10
2022-12-18T03:41:33.458Z,81.70
2022-12-18T03:44:13.041Z,81.48
2022-12-18T03:46:48.409Z,81.91
2022-12-18T03:49:26.274Z,82.41
2022-12-18T03:52:03.980Z,83.57
2022-12-18T03:54:33.908Z,83.35
2022-12-18T03:57:08.118Z,81.51
2022-12-18T03:59:40.272Z,82.28
2022-12-18T04:02:10.828Z,83.33
2022-12-18T04:04:41.326Z,83.55
2022-12-18T04:07:10.903Z,82.49
2022-12-18T04:09:39.863Z,83.20
2022-12-18T04:12:11.702Z,83.19
2022-12-18T04:14:41.923Z,81.78
2022-12-18T04:17:10.810Z,81.62
2022-12-18T04:19:39.647Z,81.20
2022-12-18T04:22:10.992Z,81.68
2022-12-18T04:24:40.182Z,82.31
2022-12-18T04:27:09.132Z,82.53
2022-12-18T04:29:37.935Z,82.33
2022-12-18T04:32:08.264Z,82.11
2022-12-18T04:34:37.105Z,80.52
2022-12-18T04:37:05.944Z,81.12
2022-12-18T04:39:34.830Z,82.08
2022-12-18T04:42:03.695Z,82.97
2022-12-18T04:44:32.533Z,81.62
2022-12-18T04:47:01.379Z,82.48
2022-12-18T04:49:31.322Z,81.15
2022-12-18T04:52:00.123Z,80.94
2022-12-18T04:54:29.161Z,82.02
2022-12-18T04:56:57.981Z,81.21
2022-12-18T04:59:26.815Z,83.40
2022-12-18T05:01:55.793Z,83.23
2022-12-18T05:04:24.762Z,82.09
2022-12-18T05:06:54.712Z,83.25
2022-12-18T05:09:23.844Z,82.26
2022-12-18T05:11:52.695Z,80.65
2022-12-18T05:14:21.724Z,82.02
2022-12-18T05:16:50.563Z,82.13
2022-12-18T05:19:19.612Z,82.15
2022-12-18T05:21:48.444Z,82.20
2022-12-18T05:24:18.577Z,82.40
2022-12-18T05:26:47.421Z,81.72
2022-12-18T05:29:16.253Z,82.37
2022-12-18T05:31:45.105Z,81.83
2022-12-18T05:34:14.176Z,82.11
2022-12-18T05:36:43.696Z,81.12
2022-12-18T05:39:13.683Z,82.02
2022-12-18T05:41:43.822Z,80.10
2022-12-18T05:44:13.029Z,81.50
2022-12-18T05:46:41.889Z,82.33
2022-12-18T05:49:10.764Z,82.38
2022-12-18T05:51:39.649Z,79.98
2022-12-18T05:54:09.303Z,80.61
2022-12-18T05:56:38.426Z,80.51
2022-12-18T05:59:08.406Z,82.00
2022-12-18T06:01:37.650Z,80.75
2022-12-18T06:04:06.960Z,80.36
2022-12-18T06:06:36.025Z,79.91
2022-12-18T06:09:09.470Z,82.46
2022-12-18T06:11:39.217Z,81.77
2022-12-18T06:14:09.909Z,80.46
2022-12-18T06:16:38.795Z,81.11
2022-12-18T06:19:08.454Z,81.21
2022-12-18T06:21:37.526Z,82.43
2022-12-18T06:24:06.897Z,82.49
2022-12-18T06:26:35.839Z,81.23
2022-12-18T06:29:04.674Z,80.81
2022-12-18T06:31:35.028Z,81.17
2022-12-18T06:34:06.673Z,81.96
2022-12-18T06:36:35.743Z,82.67
2022-12-18T06:39:04.972Z,82.37
2022-12-18T06:41:33.791Z,80.70
2022-12-18T06:44:02.610Z,79.62
2022-12-18T06:46:31.668Z,81.08
2022-12-18T06:49:01.634Z,79.41
2022-12-18T06:51:30.472Z,79.49
2022-12-18T06:53:59.339Z,80.56
2022-12-18T06:56:28.207Z,81.34
2022-12-18T06:58:57.234Z,80.76
2022-12-18T07:01:26.112Z,82.27
2022-12-18T07:03:55.926Z,81.19
2022-12-18T07:06:28.376Z,80.79
2022-12-18T07:08:57.801Z,80.35
2022-12-18T07:11:27.693Z,78.60
2022-12-18T07:13:56.621Z,78.86
2022-12-18T07:16:26.001Z,80.18
2022-12-18T07:18:56.279Z,80.28
2022-12-18T07:21:26.999Z,80.60
2022-12-18T07:23:55.817Z,78.67
2022-12-18T07:26:25.182Z,81.83
2022-12-18T07:28:58.593Z,81.25
2022-12-18T07:31:29.027Z,79.83
2022-12-18T07:33:58.182Z,80.00
2022-12-18T07:36:28.181Z,80.03
2022-12-18T07:38:57.142Z,79.45
2022-12-18T07:41:26.178Z,78.52
2022-12-18T07:43:55.076Z,78.82
2022-12-18T07:46:24.420Z,80.65
2022-12-18T07:48:53.292Z,79.10
2022-12-18T07:51:22.258Z,79.56
2022-12-18T07:53:52.713Z,79.36
2022-12-18T07:56:27.694Z,78.38
2022-12-18T07:58:57.740Z,79.34
2022-12-18T08:01:26.689Z,78.41
2022-12-18T08:03:55.700Z,79.19
2022-12-18T08:06:24.955Z,79.75
2022-12-18T08:08:56.416Z,80.57
2022-12-18T08:11:27.889Z,79.29
2022-12-18T08:13:57.618Z,80.50
2022-12-18T08:16:26.685Z,79.68
2022-12-18T08:18:55.889Z,81.06
2022-12-18T08:21:27.697Z,81.20
2022-12-18T08:24:02.720Z,78.24
2022-12-18T08:26:33.600Z,79.86
2022-12-18T08:29:02.807Z,80.02
2022-12-18T08:31:34.249Z,80.60
2022-12-18T08:34:03.145Z,81.06
2022-12-18T08:36:31.711Z,79.77
2022-12-18T08:39:01.654Z,80.49
2022-12-18T08:41:30.533Z,81.39
2022-12-18T08:44:17.247Z,82.34
2022-12-18T08:46:46.684Z,80.50
2022-12-18T08:49:15.876Z,82.33
2022-12-18T08:51:44.703Z,80.68
2022-12-18T08:54:15.935Z,81.05
2022-12-18T08:56:45.017Z,80.59
2022-12-18T08:59:19.317Z,82.37
2022-12-18T09:01:49.508Z,81.84
2022-12-18T09:04:18.745Z,81.76
2022-12-18T09:06:47.583Z,80.99
2022-12-18T09:09:17.580Z,82.08
2022-12-18T09:11:46.504Z,82.00
2022-12-18T09:14:15.385Z,81.69
2022-12-18T09:16:44.210Z,82.00
2022-12-18T09:19:13.221Z,81.24
2022-12-18T09:21:46.263Z,81.80
2022-12-18T09:24:18.955Z,81.86
2022-12-18T09:26:47.937Z,81.60
2022-12-18T09:29:18.789Z,81.93
2022-12-18T09:31:48.129Z,82.24
2022-12-18T09:34:16.734Z,82.74
2022-12-18T09:36:45.648Z,82.49
2022-12-18T09:39:17.977Z,82.50
2022-12-18T09:41:54.830Z,82.80
2022-12-18T09:44:27.397Z,83.50
2022-12-18T09:47:07.225Z,82.07
2022-12-18T09:49:41.192Z,83.30
2022-12-18T09:52:17.336Z,83.67
2022-12-18T09:54:52.871Z,83.03
2022-12-18T09:57:25.789Z,82.65
2022-12-18T09:59:59.520Z,82.39
2022-12-18T10:02:29.652Z,83.07
2022-12-18T10:05:13.680Z,83.23
2022-12-18T10:08:01.891Z,82.93
2022-12-18T10:10:42.077Z,83.28
2022-12-18T10:13:23.856Z,83.02
2022-12-18T10:16:08.860Z,82.74
2022-12-18T10:19:01.543Z,81.27
2022-12-18T10:21:36.340Z,80.19
2022-12-18T10:24:17.993Z,80.63
2022-12-18T10:26:49.209Z,80.15
2022-12-18T10:29:19.526Z,81.08
2022-12-18T10:31:48.358Z,80.03
2022-12-18T10:34:17.384Z,82.22
2022-12-18T10:36:46.352Z,82.15
2022-12-18T10:39:21.418Z,81.63
2022-12-18T10:41:51.400Z,81.84
2022-12-18T10:44:23.699Z,82.50
2022-12-18T10:46:57.221Z,81.11
2022-12-18T10:49:28.780Z,81.15
2022-12-18T10:52:10.169Z,80.18
2022-12-18T10:54:39.361Z,81.36
2022-12-18T10:57:31.827Z,81.74
2022-12-18T11:00:22.048Z,83.20
2022-12-18T11:02:51.036Z,82.70
2022-12-18T11:05:32.251Z,80.13
2022-12-18T11:08:02.510Z,80.21
2022-12-18T11:10:34.857Z,79.48
2022-12-18T11:13:20.435Z,79.67
2022-12-18T11:15:49.513Z,79.63
2022-12-18T11:18:22.519Z,80.26
2022-12-18T11:20:58.742Z,79.86
2022-12-18T11:23:28.954Z,79.32
2022-12-18T11:26:00.652Z,78.89
2022-12-18T11:28:50.120Z,79.19
2022-12-18T11:31:26.737Z,75.74
2022-12-18T11:34:28.755Z,78.83
2022-12-18T11:36:58.314Z,78.15
2022-12-18T11:39:37.709Z,79.43
2022-12-18T11:42:15.369Z,79.14
2022-12-18T11:44:51.179Z,77.61
2022-12-18T11:47:33.151Z,79.98
2022-12-18T11:50:05.317Z,79.39
2022-12-18T11:52:39.755Z,80.41
2022-12-18T11:55:16.305Z,78.51
2022-12-18T11:57:57.070Z,79.11
2022-12-18T12:00:27.487Z,79.96
2022-12-18T12:03:44.640Z,81.36
2022-12-18T12:06:22.007Z,79.59
2022-12-18T12:09:05.880Z,78.68
2022-12-18T12:11:46.066Z,76.51
2022-12-18T12:14:45.374Z,74.76
2022-12-18T12:17:26.084Z,76.26
2022-12-18T12:20:04.034Z,77.81
2022-12-18T12:22:41.988Z,77.90
2022-12-18T12:25:30.054Z,78.32
2022-12-18T12:28:15.576Z,79.84
2022-12-18T12:30:58.625Z,77.20
2022-12-18T12:33:42.627Z,79.04
2022-12-18T12:36:22.761Z,80.93
2022-12-18T12:38:57.704Z,78.62
2022-12-18T12:41:48.337Z,77.25
2022-12-18T12:44:23.424Z,74.88
2022-12-18T12:46:54.876Z,76.02
2022-12-18T12:49:29.128Z,74.88
2022-12-18T12:52:07.588Z,74.55
2022-12-18T12:54:37.734Z,74.40
2022-12-18T12:57:15.156Z,79.63
2022-12-18T12:59:53.496Z,75.04
2022-12-18T13:02:31.309Z,75.95
2022-12-18T13:05:08.983Z,75.55
2022-12-18T13:07:43.655Z,74.75
2022-12-18T13:10:33.666Z,77.10
2022-12-18T13:13:04.884Z,77.01
2022-12-18T13:15:40.273Z,78.13
2022-12-18T13:18:21.788Z,76.27
2022-12-18T13:20:59.770Z,76.22
2022-12-18T13:23:41.669Z,79.28
2022-12-18T13:26:35.457Z,78.23
2022-12-18T13:29:10.737Z,82.46
2022-12-18T13:32:22.441Z,83.01
2022-12-18T13:35:42.984Z,80.32
2022-12-18T13:38:24.646Z,82.48
2022-12-18T13:40:59.118Z,85.94
2022-12-18T13:43:44.035Z,86.05
2022-12-18T13:46:27.049Z,82.20
2022-12-18T13:49:01.935Z,81.20
2022-12-18T13:51:34.290Z,84.44
2022-12-18T13:54:04.931Z,84.75
2022-12-18T13:56:35.910Z,84.16
2022-12-18T13:59:24.535Z,86.75
2022-12-18T14:01:57.889Z,85.98
2022-12-18T14:04:30.091Z,86.20
2022-12-18T14:07:04.391Z,83.79
2022-12-18T14:09:37.335Z,87.35
2022-12-18T14:12:26.288Z,84.34
2022-12-18T14:14:56.035Z,87.50
2022-12-18T14:17:26.336Z,86.71
2022-12-18T14:19:55.175Z,82.48
2022-12-18T14:22:28.925Z,83.34
2022-12-18T14:25:17.915Z,84.95
2022-12-18T14:27:49.692Z,87.63
2022-12-18T14:30:30.539Z,86.01
2022-12-18T14:33:05.588Z,86.39
2022-12-18T14:35:35.667Z,88.02
2022-12-18T14:38:25.401Z,86.81
2022-12-18T14:41:01.931Z,87.72
2022-12-18T14:43:34.345Z,85.82
2022-12-18T14:46:04.213Z,86.75
2022-12-18T14:48:41.054Z,84.17
2022-12-18T14:51:18.002Z,82.06
2022-12-18T14:53:53.981Z,86.81
2022-12-18T14:56:26.035Z,86.44
2022-12-18T14:58:58.228Z,87.92
2022-12-18T15:01:30.691Z,87.18
2022-12-18T15:04:02.806Z,87.87
2022-12-18T15:06:35.840Z,88.11
2022-12-18T15:09:08.622Z,88.57
2022-12-18T15:11:48.444Z,88.46
2022-12-18T15:14:40.570Z,86.58
2022-12-18T15:17:20.106Z,88.33
2022-12-18T15:19:52.864Z,88.99
2022-12-18T15:22:28.560Z,87.28
2022-12-18T15:24:58.489Z,84.67
2022-12-18T15:27:36.924Z,84.79
2022-12-18T15:30:22.068Z,86.63
2022-12-18T15:32:51.423Z,88.48
2022-12-18T15:35:24.506Z,87.96
2022-12-18T15:37:54.298Z,88.88
2022-12-18T15:40:25.844Z,86.63
2022-12-18T15:43:28.538Z,85.67
2022-12-18T15:45:57.307Z,88.58
2022-12-18T15:48:25.828Z,88.73
2022-12-18T15:50:59.435Z,89.79
2022-12-18T15:53:33.183Z,88.55
2022-12-18T15:56:19.468Z,88.37
2022-12-18T15:58:48.838Z,87.63
2022-12-18T16:01:18.199Z,85.50
2022-12-18T16:03:46.879Z,85.47
2022-12-18T16:06:16.775Z,85.62
2022-12-18T16:08:45.488Z,84.69
2022-12-18T16:11:39.088Z,83.83
2022-12-18T16:14:17.775Z,85.81
2022-12-18T16:16:46.981Z,85.10
2022-12-18T16:19:15.659Z,85.74
2022-12-18T16:21:45.984Z,88.80
2022-12-18T16:24:18.398Z,84.57
2022-12-18T16:26:47.163Z,87.40
2022-12-18T16:29:15.950Z,86.01
2022-12-18T16:31:44.669Z,85.66
2022-12-18T16:34:23.205Z,83.95
2022-12-18T16:37:04.852Z,86.49
2022-12-18T16:39:35.477Z,88.45
2022-12-18T16:42:06.296Z,85.67
2022-12-18T16:44:35.112Z,85.05
2022-12-18T16:47:04.784Z,86.54
2022-12-18T16:49:33.478Z,87.04
2022-12-18T16:52:04.279Z,87.79
2022-12-18T16:54:33.954Z,86.28
2022-12-18T16:57:02.636Z,86.43
2022-12-18T16:59:31.475Z,85.40
2022-12-18T17:02:00.744Z,85.66
2022-12-18T17:04:29.331Z,87.54
2022-12-18T17:06:57.854Z,86.43
2022-12-18T17:09:27.926Z,85.98
2022-12-18T17:11:57.227Z,86.71
2022-12-18T17:14:27.129Z,88.04
2022-12-18T17:17:20.219Z,86.26
2022-12-18T17:19:45.786Z,85.28
2022-12-18T17:22:14.261Z,86.47
2022-12-18T17:24:44.158Z,85.41
2022-12-18T17:27:12.713Z,85.95
2022-12-18T17:29:47.445Z,87.02
2022-12-18T17:32:17.278Z,85.25
2022-12-18T17:34:45.838Z,86.36
2022-12-18T17:37:14.559Z,83.49
2022-12-18T17:39:44.679Z,86.11
2022-12-18T17:42:14.835Z,85.47
2022-12-18T17:44:44.225Z,84.96
2022-12-18T17:47:13.169Z,83.75
2022-12-18T17:49:42.627Z,84.16
2022-12-18T17:52:11.777Z,83.87
2022-12-18T17:54:42.423Z,86.25
2022-12-18T17:57:12.612Z,84.22
2022-12-18T17:59:41.084Z,84.96
2022-12-18T18:02:13.027Z,84.85
2022-12-18T18:04:42.842Z,84.12
2022-12-18T18:07:11.335Z,84.45
2022-12-18T18:09:39.894Z,86.70
2022-12-18T18:12:27.031Z,88.22
2022-12-18T18:14:57.039Z,89.47
2022-12-18T18:17:26.197Z,89.36
2022-12-18T18:19:54.980Z,89.43
2022-12-18T18:22:23.497Z,88.91
2022-12-18T18:24:53.232Z,86.91
2022-12-18T18:27:21.714Z,85.73
2022-12-18T18:29:50.495Z,87.14
2022-12-18T18:32:20.458Z,87.58
2022-12-18T18:34:49.583Z,86.05
2022-12-18T18:37:18.090Z,86.70
2022-12-18T18:39:46.555Z,88.04
2022-12-18T18:42:15.239Z,89.31
2022-12-18T18:44:48.743Z,88.58
2022-12-18T18:47:19.329Z,88.52
2022-12-18T18:49:48.197Z,86.30
2022-12-18T18:52:16.724Z,88.97
2022-12-18T18:55:11.183Z,88.88
2022-12-18T18:57:34.896Z,86.70
2022-12-18T19:00:03.623Z,85.95
2022-12-18T19:02:33.578Z,85.54
2022-12-18T19:05:02.223Z,87.87
2022-12-18T19:07:31.385Z,88.90
2022-12-18T19:10:07.246Z,88.24
2022-12-18T19:12:53.883Z,88.18
2022-12-18T19:15:22.746Z,85.53
2022-12-18T19:17:53.167Z,87.04
2022-12-18T19:20:21.755Z,85.84
2022-12-18T19:22:55.365Z,84.84
2022-12-18T19:25:38.595Z,85.66
2022-12-18T19:28:21.232Z,86.18
2022-12-18T19:30:55.340Z,86.19
2022-12-18T19:33:45.879Z,85.35
2022-12-18T19:36:20.302Z,87.61
2022-12-18T19:38:49.633Z,88.27
2022-12-18T19:41:19.735Z,88.18
2022-12-18T19:43:49.795Z,89.61
2022-12-18T19:46:21.140Z,87.84
2022-12-18T19:48:52.018Z,87.06
2022-12-18T19:51:23.120Z,88.58
2022-12-18T19:53:58.076Z,87.89
2022-12-18T19:56:29.924Z,88.95
2022-12-18T19:58:58.460Z,89.13
2022-12-18T20:01:29.608Z,88.70
2022-12-18T20:04:00.349Z,87.95
2022-12-18T20:06:32.356Z,87.56
2022-12-18T20:09:03.651Z,88.39
2022-12-18T20:11:32.278Z,86.64
2022-12-18T20:14:03.614Z,87.29
2022-12-18T20:16:32.211Z,86.11
2022-12-18T20:19:02.255Z,86.22
2022-12-18T20:21:31.247Z,85.54
2022-12-18T20:24:00.214Z,84.59
2022-12-18T20:26:28.973Z,85.01
2022-12-18T20:28:57.922Z,84.50
2022-12-18T20:31:26.893Z,84.96
2022-12-18T20:34:01.721Z,86.11
2022-12-18T20:36:35.139Z,86.35
2022-12-18T20:39:07.648Z,86.44
2022-12-18T20:41:39.106Z,85.70
2022-12-18T20:44:21.397Z,85.85
2022-12-18T20:46:56.953Z,84.19
2022-12-18T20:49:27.641Z,87.67
2022-12-18T20:51:59.735Z,86.13
2022-12-18T20:54:29.193Z,87.50
2022-12-18T20:56:58.644Z,85.04
2022-12-18T20:59:27.271Z,86.28
2022-12-18T21:01:56.237Z,84.28
2022-12-18T21:04:25.630Z,87.07
2022-12-18T21:07:02.310Z,87.03
2022-12-18T21:09:37.709Z,88.19
2022-12-18T21:12:29.163Z,88.93
2022-12-18T21:14:59.603Z,88.02
2022-12-18T21:17:28.499Z,87.06
2022-12-18T21:19:58.151Z,88.63
2022-12-18T21:22:28.470Z,86.09
2022-12-18T21:24:57.437Z,86.19
2022-12-18T21:27:25.960Z,85.91
2022-12-18T21:29:54.471Z,86.44
2022-12-18T21:32:23.982Z,84.54
2022-12-18T21:34:54.576Z,85.37
2022-12-18T21:37:23.097Z,85.32
2022-12-18T21:39:53.327Z,84.38
2022-12-18T21:42:53.877Z,87.01
2022-12-18T21:45:22.361Z,87.07
2022-12-18T21:47:50.879Z,84.99
2022-12-18T21:50:19.785Z,86.83
2022-12-18T21:52:48.248Z,85.81
2022-12-18T21:55:18.635Z,85.29
2022-12-18T21:57:47.559Z,85.90
2022-12-18T22:00:19.135Z,83.97
2022-12-18T22:03:17.684Z,88.05
2022-12-18T22:05:38.275Z,87.24
2022-12-18T22:08:07.876Z,86.11
2022-12-18T22:10:38.837Z,87.12
2022-12-18T22:13:10.079Z,86.47
2022-12-18T22:15:38.633Z,86.17
2022-12-18T22:18:07.222Z,85.30
2022-12-18T22:20:35.726Z,84.72
2022-12-18T22:23:05.978Z,84.58
2022-12-18T22:25:38.931Z,84.82
2022-12-18T22:28:27.261Z,85.53
2022-12-18T22:30:59.488Z,84.65
2022-12-18T22:33:28.944Z,86.96
2022-12-18T22:35:57.467Z,87.01
2022-12-18T22:38:26.285Z,85.54
2022-12-18T22:40:56.020Z,86.28
2022-12-18T22:43:26.063Z,85.56
2022-12-18T22:45:54.854Z,85.51
2022-12-18T22:48:23.402Z,84.88
2022-12-18T22:50:53.456Z,86.49
2022-12-18T22:53:27.657Z,84.77
2022-12-18T22:56:02.397Z,86.57
2022-12-18T22:58:32.272Z,85.06
2022-12-18T23:01:01.220Z,84.88
2022-12-18T23:03:29.916Z,85.60
2022-12-18T23:06:08.103Z,87.68
2022-12-18T23:08:36.879Z,85.57
2022-12-18T23:11:06.616Z,88.59
2022-12-18T23:13:37.387Z,86.33
2022-12-18T23:16:08.171Z,86.18
2022-12-18T23:18:37.343Z,83.73
2022-12-18T23:21:07.464Z,88.36
2022-12-18T23:23:38.368Z,89.37
2022-12-18T23:26:10.844Z,90.83
2022-12-18T23:28:41.754Z,91.08
2022-12-18T23:31:17.046Z,90.79
2022-12-18T23:33:47.204Z,90.59
2022-12-18T23:36:17.082Z,89.64
2022-12-18T23:38:50.551Z,89.58
2022-12-18T23:41:21.982Z,88.53
2022-12-18T23:43:52.660Z,88.00
2022-12-18T23:46:24.284Z,87.15
2022-12-18T23:48:53.979Z,87.98
2022-12-18T23:51:25.933Z,87.83
2022-12-18T23:53:55.343Z,88.74
2022-12-18T23:56:24.600Z,87.41
2022-12-18T23:58:54.547Z,87.70
